Latest Weather Observations for Orbost

IDV60801

Issued at 7:35 pm EDT Sunday 23 November 2014 (issued every 30 minutes, with the page automatically refreshed every 10 minutes)

About weather observations | Map of weather stations | Latest weather observations for VIC | Other Formats
Station Details ID: 084145 Name: ORBOST Lat: -37.69 Lon: 148.47 Height: 62.65 m
Data from the previous 72 hours. | See also: Recent months at Orbost
Date/Time
EDT
Temp
°C
App
Temp
°C
Dew
Point
Rel
Hum
%
Delta-T
°C
Wind Press
QNH
hPa
Press
MSL
hPa
Rain
since 9 am
mm
Dir
 
Spd
km/h
Gust
km/h
Spd
kts
Gust
kts
23/07:30pm 16.6 16.6 12.4 76 2.3 S 4 7 2 4 1014.5 1014.4 0.0
23/07:00pm 17.0 16.3 12.1 73 2.7 S 7 13 4 7 1013.8 1013.7 0.0
23/06:30pm 17.4 16.7 11.9 70 3.0 S 7 11 4 6 1013.4 1013.3 0.0
23/06:00pm 17.7 16.8 11.5 67 3.4 S 7 13 4 7 1012.9 1012.8 0.0
23/05:30pm 18.3 17.0 11.1 63 3.9 SSE 9 17 5 9 1012.5 1012.4 0.0
23/05:00pm 18.4 16.0 10.0 58 4.5 S 13 22 7 12 1012.2 1012.1 0.0
23/04:30pm 19.2 17.1 11.0 59 4.5 S 13 20 7 11 1012.1 1012.0 0.0
23/04:00pm 19.8 17.8 11.6 59 4.5 S 13 19 7 10 1011.7 1011.6 0.0
23/03:30pm 19.8 17.7 11.3 58 4.7 SSE 13 22 7 12 1011.4 1011.3 0.0
23/03:00pm 20.2 18.6 11.7 58 4.7 SSE 11 20 6 11 1011.9 1011.8 0.0
23/02:30pm 20.4 19.2 12.9 62 4.3 SSE 11 19 6 10 1012.0 1011.9 0.0
23/02:00pm 19.7 18.1 11.5 59 4.5 SSE 11 20 6 11 1012.1 1012.0 0.0
23/01:30pm 19.7 18.3 13.4 67 3.6 SSE 13 24 7 13 1012.1 1012.0 0.0
23/01:00pm 19.4 18.6 14.0 71 3.1 SSE 11 19 6 10 1012.2 1012.1 0.0
23/12:30pm 20.2 20.0 15.6 75 2.7 SSE 11 20 6 11 1012.3 1012.2 0.0
23/12:00pm 20.7 20.9 15.7 73 3.0 S 9 15 5 8 1012.6 1012.5 0.0
23/11:30am 20.1 19.8 14.5 70 3.3 S 9 15 5 8 1012.8 1012.7 0.0
23/11:00am 20.4 20.3 15.0 71 3.2 SSE 9 15 5 8 1013.0 1012.9 0.0
23/10:30am 20.8 21.2 15.4 71 3.2 SSE 7 15 4 8 1013.1 1013.0 0.0
23/10:00am 20.5 21.2 15.5 73 3.0 SSE 6 13 3 7 1013.0 1012.9 0.0
23/09:30am 20.0 20.7 14.4 70 3.3 SSE 4 9 2 5 1013.1 1013.0 0.0
23/09:00am 19.6 20.3 14.6 73 2.9 S 4 7 2 4 1012.8 1012.7 0.4
23/08:30am 19.1 18.9 14.8 76 2.5 SSW 9 11 5 6 1013.1 1013.0 0.4
23/08:00am 19.0 18.7 13.4 70 3.2 WSW 7 11 4 6 1012.4 1012.3 0.4
23/07:30am 19.4 19.5 13.8 70 3.2 W 6 7 3 4 1011.9 1011.8 0.4
23/07:00am 19.7 20.5 14.9 74 2.8 WNW 4 7 2 4 1011.6 1011.5 0.4
23/06:30am 19.3 19.7 14.8 75 2.6 W 6 9 3 5 1011.1 1011.0 0.4
23/06:00am 18.6 19.2 15.3 81 1.9 NW 6 9 3 5 1010.7 1010.6 0.4
23/05:30am 18.5 19.4 15.0 80 2.0 N 4 6 2 3 1009.9 1009.8 0.4
23/05:00am 19.4 19.6 14.6 74 2.8 SSW 7 11 4 6 1009.1 1008.9 0.4
23/04:30am 19.7 19.3 15.1 75 2.7 WSW 11 15 6 8 1009.1 1008.9 0.4
23/04:00am 21.2 21.6 14.8 67 3.8 W 6 17 3 9 1009.2 1009.0 0.4
23/03:30am 21.3 21.5 14.7 66 3.9 W 7 13 4 7 1008.8 1008.6 0.4
23/03:00am 21.0 20.2 15.1 69 3.5 WNW 13 19 7 10 1008.5 1008.3 0.2
23/02:30am 22.9 22.2 13.1 54 5.7 N 9 13 5 7 1007.6 1007.4 0.0
23/02:00am 23.7 23.1 12.4 49 6.5 NW 7 13 4 7 1008.0 1007.8 0.0
23/01:30am 23.4 22.0 12.1 49 6.4 N 11 17 6 9 1007.2 1007.1 0.0
23/01:00am 22.0 21.3 13.1 57 5.1 N 9 11 5 6 1007.4 1007.2 0.0
23/12:30am 20.6 21.0 13.6 64 4.0 NNE 4 6 2 3 1007.2 1007.1 0.0
23/12:00am 19.7 21.3 14.9 74 2.8 CALM 0 0 0 0 1007.7 1007.5 0.0
 
Date/Time
EDT
Temp
°C
App
Temp
°C
Dew
Point
Rel
Hum
%
Delta-T
°C
Wind Press
QNH
hPa
Press
MSL
hPa
Rain
since 9 am
mm
Dir
 
Spd
km/h
Gust
km/h
Spd
kts
Gust
kts
22/11:30pm 19.0 20.9 15.7 81 2.0 CALM 0 4 0 2 1007.6 1007.4 0.0
22/11:00pm 19.4 21.4 15.9 80 2.1 CALM 0 6 0 3 1007.6 1007.4 0.0
22/10:30pm 20.9 22.8 15.7 72 3.1 CALM 0 0 0 0 1007.7 1007.5 0.0
22/10:00pm 21.6 23.0 14.3 63 4.3 CALM 0 7 0 4 1007.6 1007.4 0.0
22/09:30pm 21.9 22.3 15.3 66 3.9 NE 7 13 4 7 1007.4 1007.2 0.0
22/09:00pm 20.6 21.9 16.2 76 2.7 NNE 4 6 2 3 1007.9 1007.7 0.0
22/08:30pm 21.0 23.0 17.0 78 2.4 N 2 4 1 2 1007.8 1007.6 0.0
22/08:00pm 20.9 23.6 17.7 82 2.0 CALM 0 0 0 0 1007.7 1007.5 0.0
22/07:30pm 22.3 25.2 18.3 78 2.5 CALM 0 6 0 3 1007.7 1007.5 0.0
22/07:00pm 23.6 26.0 18.0 71 3.5 ESE 2 6 1 3 1007.9 1007.7 0.0
22/06:30pm 24.6 26.9 17.6 65 4.4 E 2 4 1 2 1007.7 1007.5 0.0
22/06:00pm 24.6 26.1 16.6 61 4.9 E 4 7 2 4 1007.7 1007.5 0.0
22/05:30pm 25.1 26.6 15.7 56 5.7 SE 2 4 1 2 1008.1 1007.9 0.0
22/05:00pm 25.5 27.2 15.2 53 6.2 CALM 0 0 0 0 1008.2 1008.0 0.0
22/04:30pm 25.3 25.5 14.7 51 6.3 ENE 7 13 4 7 1008.1 1007.9 0.0
22/04:00pm 24.4 24.8 15.3 57 5.5 E 7 15 4 8 1008.2 1008.0 0.0
22/03:30pm 24.4 25.9 15.6 58 5.3 ESE 2 6 1 3 1009.4 1009.2 0.0
22/03:00pm 24.3 25.5 15.0 56 5.6 ESE 2 6 1 3 1010.3 1010.2 0.0
22/02:30pm 24.1 24.6 15.1 57 5.4 ESE 6 9 3 5 1010.1 1010.0 0.0
22/02:00pm 24.2 24.6 15.4 58 5.3 SE 7 11 4 6 1010.5 1010.4 0.0
22/01:30pm 24.6 24.9 16.1 59 5.2 SSE 9 13 5 7 1010.5 1010.4 0.0
22/01:00pm 25.3 26.0 16.2 57 5.6 SE 7 11 4 6 1010.6 1010.5 0.0
22/12:30pm 25.9 26.8 16.5 56 5.8 S 7 11 4 6 1010.7 1010.6 0.0
22/12:00pm 25.6 26.4 15.9 55 5.9 S 6 11 3 6 1010.9 1010.8 0.0
22/11:30am 24.8 26.4 16.0 58 5.4 SSE 2 7 1 4 1010.9 1010.8 0.0
22/11:00am 23.3 24.3 16.4 65 4.2 S 6 9 3 5 1010.8 1010.7 0.0
22/10:30am 22.1 22.8 15.7 67 3.8 S 6 9 3 5 1010.9 1010.8 0.0
22/10:00am 21.6 22.5 16.1 71 3.3 S 6 7 3 4 1011.4 1011.3 0.0
22/09:30am 20.5 21.2 14.6 69 3.5 S 4 9 2 5 1011.5 1011.4 0.0
22/09:00am 19.4 21.1 15.1 76 2.5 CALM 0 0 0 0 1011.9 1011.8 0.0
22/08:30am 16.5 17.2 13.4 82 1.7 SSW 2 4 1 2 1012.2 1012.1 0.0
22/08:00am 14.3 15.0 12.2 87 1.1 CALM 0 0 0 0 1012.2 1012.1 0.0
22/07:30am 12.4 12.9 11.5 94 0.5 CALM 0 0 0 0 1012.2 1012.1 0.0
22/07:00am 11.6 11.9 11.0 96 0.3 CALM 0 0 0 0 1012.0 1011.9 0.0
22/06:30am 10.8 11.0 10.5 98 0.2 CALM 0 2 0 1 1011.9 1011.8 0.0
22/06:00am 10.4 10.5 10.1 98 0.2 CALM 0 0 0 0 1011.9 1011.8 0.0
22/05:30am 9.5 9.3 9.2 98 0.1 CALM 0 0 0 0 1011.7 1011.6 0.0
22/05:00am 9.8 9.7 9.5 98 0.1 CALM 0 0 0 0 1011.9 1011.8 0.0
22/04:30am 9.9 9.8 9.4 97 0.2 CALM 0 0 0 0 1011.8 1011.7 0.0
22/04:00am 10.2 10.2 9.7 97 0.3 CALM 0 0 0 0 1012.1 1012.0 0.0
22/03:30am 10.4 10.4 9.8 96 0.3 CALM 0 0 0 0 1012.5 1012.4 0.0
22/03:00am 10.5 10.5 9.9 96 0.3 CALM 0 0 0 0 1012.7 1012.6 0.0
22/02:30am 10.4 10.4 9.8 96 0.3 CALM 0 0 0 0 1013.2 1013.1 0.0
22/02:00am 10.3 10.3 9.7 96 0.3 CALM 0 0 0 0 1013.6 1013.5 0.0
22/01:30am 10.1 9.6 9.3 95 0.4 E 2 2 1 1 1013.9 1013.8 0.0
22/01:00am 10.4 10.0 9.6 95 0.4 ESE 2 4 1 2 1014.3 1014.2 0.0
22/12:30am 10.6 10.6 9.8 95 0.4 CALM 0 0 0 0 1014.6 1014.5 0.0
22/12:00am 10.0 9.0 8.8 92 0.6 N 4 6 2 3 1014.7 1014.6 0.0
 
Date/Time
EDT
Temp
°C
App
Temp
°C
Dew
Point
Rel
Hum
%
Delta-T
°C
Wind Press
QNH
hPa
Press
MSL
hPa
Rain
since 9 am
mm
Dir
 
Spd
km/h
Gust
km/h
Spd
kts
Gust
kts
21/11:30pm 11.3 11.3 9.7 90 0.8 CALM 0 0 0 0 1014.8 1014.7 0.0
21/11:00pm 12.3 11.3 10.4 88 1.0 NE 6 7 3 4 1014.7 1014.6 0.0
21/10:30pm 11.8 10.6 10.2 90 0.8 ENE 7 9 4 5 1014.8 1014.7 0.0
21/10:00pm 12.1 11.1 10.2 88 1.0 NNE 6 6 3 3 1014.7 1014.6 0.0
21/09:30pm 12.3 11.3 10.4 88 1.0 NE 6 7 3 4 1014.5 1014.4 0.0
21/09:00pm 12.5 12.0 10.6 88 1.0 ENE 4 6 2 3 1014.5 1014.4 0.0
21/08:30pm 12.9 12.7 10.3 84 1.3 ENE 2 4 1 2 1014.3 1014.2 0.0
21/08:00pm 14.5 14.3 10.5 77 2.1 ESE 2 4 1 2 1013.8 1013.7 0.0
21/07:30pm 15.6 14.6 10.2 70 2.8 S 6 9 3 5 1013.5 1013.4 0.0
21/07:00pm 16.3 15.1 10.4 68 3.1 S 7 15 4 8 1013.0 1012.9 0.0
21/06:30pm 17.0 15.7 11.1 68 3.2 S 9 15 5 8 1012.5 1012.4 0.0
21/06:00pm 16.5 15.1 11.0 70 3.0 S 9 15 5 8 1012.1 1012.0 0.0
21/05:30pm 18.1 16.3 12.1 68 3.3 SSW 13 19 7 10 1011.8 1011.7 0.0
21/05:00pm 17.2 15.2 11.5 69 3.1 SW 13 19 7 10 1011.5 1011.4 0.0
21/04:30pm 17.9 16.7 12.8 72 2.9 S 11 19 6 10 1011.2 1011.1 0.0
21/04:00pm 17.5 16.0 12.0 70 3.0 SSW 11 19 6 10 1011.1 1011.0 0.0
21/03:30pm 18.2 17.6 13.5 74 2.7 SW 9 17 5 9 1010.9 1010.8 0.0
21/03:00pm 17.4 16.7 13.1 76 2.4 SW 9 15 5 8 1010.9 1010.8 0.0
21/02:30pm 16.1 14.7 12.3 78 2.1 SW 11 20 6 11 1011.0 1010.9 0.0
21/02:00pm 15.9 14.2 12.5 80 1.9 SW 13 22 7 12 1010.9 1010.8 0.0
21/01:30pm 16.0 13.2 12.7 81 1.8 SW 19 26 10 14 1010.7 1010.6 0.0
21/01:00pm 16.4 16.0 14.1 86 1.3 SSW 9 15 5 8 1010.3 1010.2 0.0
21/12:30pm 16.4 14.3 13.7 84 1.5 SSW 17 24 9 13 1010.2 1010.1 0.0
21/12:00pm 17.1 17.0 14.0 82 1.8 SSW 7 11 4 6 1010.0 1009.9 0.0
21/11:30am 16.9 16.6 14.4 85 1.4 SW 9 19 5 10 1010.0 1009.9 0.0
21/11:00am 16.7 16.4 14.3 86 1.4 SW 9 15 5 8 1009.7 1009.6 0.0
21/10:30am 17.2 16.2 14.5 84 1.6 SSW 13 19 7 10 1009.2 1009.0 0.0
21/10:00am 17.7 17.8 14.4 81 1.9 SSW 7 9 4 5 1008.8 1008.6 0.0
21/09:30am 17.8 17.6 14.7 82 1.8 WSW 9 17 5 9 1008.7 1008.5 0.0
21/09:00am 17.9 16.8 14.4 80 2.0 SW 13 20 7 11 1008.6 1008.4 0.0
21/08:30am 18.9 17.8 14.2 74 2.7 SSW 13 20 7 11 1008.1 1007.9 0.0
21/08:00am 20.6 20.8 14.3 67 3.7 W 6 17 3 9 1007.0 1006.9 0.0
21/07:30am 20.4 20.5 13.8 66 3.8 NW 6 13 3 7 1006.1 1006.0 0.0
21/07:00am 19.7 19.5 13.6 68 3.5 N 7 9 4 5 1005.9 1005.8 0.0
21/06:30am 19.7 19.4 13.4 67 3.6 NW 7 9 4 5 1005.7 1005.6 0.0
21/06:00am 17.9 17.8 13.2 74 2.7 N 6 7 3 4 1005.2 1005.1 0.0
21/05:30am 16.0 15.9 13.3 84 1.5 NW 6 9 3 5 1004.6 1004.5 0.0
21/05:00am 16.7 17.0 13.4 81 1.9 NNW 4 4 2 2 1003.5 1003.4 0.0
21/04:30am 16.9 17.3 13.6 81 1.9 WNW 4 6 2 3 1003.2 1003.1 0.0
21/04:00am 16.4 16.3 13.3 82 1.7 WSW 6 7 3 4 1003.0 1002.9 0.0
21/03:30am 16.8 16.6 12.9 78 2.2 N 6 9 3 5 1002.9 1002.8 0.0
21/03:00am 19.7 19.4 13.2 66 3.7 N 7 17 4 9 1003.3 1003.2 0.0
21/02:30am 20.2 18.9 13.6 66 3.8 NE 13 22 7 12 1003.8 1003.7 0.0
21/02:00am 18.3 18.3 14.2 77 2.4 E 7 13 4 7 1004.9 1004.8 0.0
21/01:30am 18.0 19.4 14.3 79 2.1 CALM 0 4 0 2 1006.4 1006.3 0.0
21/01:00am 18.4 19.3 13.9 75 2.6 NNE 2 4 1 2 1007.1 1007.0 0.0
21/12:30am 18.3 18.4 14.0 76 2.5 ENE 6 7 3 4 1007.8 1007.6 0.0
21/12:00am 18.4 18.6 14.1 76 2.5 ENE 6 11 3 6 1008.3 1008.1 0.0
 
Date/Time
EDT
Temp
°C
App
Temp
°C
Dew
Point
Rel
Hum
%
Delta-T
°C
Wind Press
QNH
hPa
Press
MSL
hPa
Rain
since 9 am
mm
Dir
 
Spd
km/h
Gust
km/h
Spd
kts
Gust
kts
20/11:30pm 18.0 18.5 13.9 77 2.3 E 4 7 2 4 1008.7 1008.5 0.0
20/11:00pm 17.8 17.8 13.5 76 2.4 ENE 6 7 3 4 1009.0 1008.8 0.0
20/10:30pm 18.0 18.4 13.7 76 2.5 E 4 7 2 4 1009.1 1008.9 0.0
20/10:00pm 18.4 18.7 13.3 72 2.9 NE 4 6 2 3 1009.3 1009.1 0.0
20/09:30pm 18.7 18.9 13.1 70 3.2 ENE 4 6 2 3 1009.2 1009.0 0.0
20/09:00pm 19.7 19.7 12.5 63 4.1 SSE 4 7 2 4 1008.8 1008.6 0.0
20/08:30pm 20.1 20.3 11.8 59 4.6 S 2 13 1 7 1008.5 1008.3 0.0
20/08:00pm 21.4 18.7 11.7 54 5.4 SSW 17 30 9 16 1008.3 1008.1 0.0

Other Formats:

Comma delimited format used in spreadsheet applications
http://www.bom.gov.au/fwo/IDV60801/IDV60801.95918.axf

JavaScript Object Notation format (JSON) in row-major order
http://www.bom.gov.au/fwo/IDV60801/IDV60801.95918.json